sensor_id;sensor_type;location;lat;lon;timestamp;pressure;altitude;pressure_sealevel;temperature;humidity
45403;BME280;47427;51.976;5.326;2022-09-12T00:01:56;101675.22;;;14.99;89.46
45403;BME280;47427;51.976;5.326;2022-09-12T00:05:19;101671.59;;;14.95;89.78
45403;BME280;47427;51.976;5.326;2022-09-12T00:08:41;101664.53;;;14.94;89.79
45403;BME280;47427;51.976;5.326;2022-09-12T00:12:04;101645.00;;;14.88;89.96
45403;BME280;47427;51.976;5.326;2022-09-12T00:15:27;101663.56;;;14.89;89.64
45403;BME280;47427;51.976;5.326;2022-09-12T00:18:50;101652.00;;;14.86;90.02
45403;BME280;47427;51.976;5.326;2022-09-12T00:22:15;101634.19;;;14.76;90.04
45403;BME280;47427;51.976;5.326;2022-09-12T00:25:45;101635.84;;;14.70;90.21
45403;BME280;47427;51.976;5.326;2022-09-12T00:29:14;101653.47;;;14.71;90.19
45403;BME280;47427;51.976;5.326;2022-09-12T00:32:38;101652.66;;;14.76;90.10
45403;BME280;47427;51.976;5.326;2022-09-12T00:36:09;101633.84;;;14.60;90.30
45403;BME280;47427;51.976;5.326;2022-09-12T00:39:32;101633.84;;;14.59;90.50
45403;BME280;47427;51.976;5.326;2022-09-12T00:42:55;101648.09;;;14.67;90.73
45403;BME280;47427;51.976;5.326;2022-09-12T00:50:11;101630.19;;;14.54;90.82
45403;BME280;47427;51.976;5.326;2022-09-12T00:53:35;101633.78;;;14.57;90.81
45403;BME280;47427;51.976;5.326;2022-09-12T00:57:04;101614.88;;;14.40;90.88
45403;BME280;47427;51.976;5.326;2022-09-12T01:00:28;101638.94;;;14.52;91.11
45403;BME280;47427;51.976;5.326;2022-09-12T01:03:51;101638.00;;;14.50;91.21
45403;BME280;47427;51.976;5.326;2022-09-12T01:07:14;101637.97;;;14.49;91.39
45403;BME280;47427;51.976;5.326;2022-09-12T01:10:39;101632.66;;;14.47;91.36
45403;BME280;47427;51.976;5.326;2022-09-12T01:14:02;101637.88;;;14.44;91.38
45403;BME280;47427;51.976;5.326;2022-09-12T01:17:50;101626.25;;;14.36;91.28
45403;BME280;47427;51.976;5.326;2022-09-12T01:21:23;101625.31;;;14.34;91.49
45403;BME280;47427;51.976;5.326;2022-09-12T01:48:23;101601.50;;;13.95;92.11
45403;BME280;47427;51.976;5.326;2022-09-12T01:52:44;101609.41;;;13.95;92.16
45403;BME280;47427;51.976;5.326;2022-09-12T01:56:25;101596.97;;;13.89;92.10
45403;BME280;47427;51.976;5.326;2022-09-12T01:59:53;101592.50;;;13.86;92.19
45403;BME280;47427;51.976;5.326;2022-09-12T02:03:33;101580.88;;;13.78;92.36
45403;BME280;47427;51.976;5.326;2022-09-12T02:07:14;101579.19;;;13.82;92.38
45403;BME280;47427;51.976;5.326;2022-09-12T02:10:55;101582.66;;;13.79;92.58
45403;BME280;47427;51.976;5.326;2022-09-12T02:14:33;101578.25;;;13.80;92.49
45403;BME280;47427;51.976;5.326;2022-09-12T02:17:59;101566.81;;;13.79;92.61
45403;BME280;47427;51.976;5.326;2022-09-12T02:21:23;101564.16;;;13.78;92.78
45403;BME280;47427;51.976;5.326;2022-09-12T02:24:53;101556.97;;;13.72;92.60
45403;BME280;47427;51.976;5.326;2022-09-12T02:28:31;101570.22;;;13.74;92.93
45403;BME280;47427;51.976;5.326;2022-09-12T02:35:50;101564.88;;;13.72;92.59
45403;BME280;47427;51.976;5.326;2022-09-12T02:39:13;101561.28;;;13.69;92.66
45403;BME280;47427;51.976;5.326;2022-09-12T02:42:41;101563.94;;;13.69;92.94
45403;BME280;47427;51.976;5.326;2022-09-12T02:46:41;101567.44;;;13.69;92.63
45403;BME280;47427;51.976;5.326;2022-09-12T02:50:06;101565.81;;;13.73;92.58
45403;BME280;47427;51.976;5.326;2022-09-12T02:53:30;101542.53;;;13.56;92.51
45403;BME280;47427;51.976;5.326;2022-09-12T02:56:52;101548.88;;;13.64;92.85
45403;BME280;47427;51.976;5.326;2022-09-12T03:00:15;101555.91;;;13.64;92.75
45403;BME280;47427;51.976;5.326;2022-09-12T03:08:07;101553.25;;;13.62;92.85
45403;BME280;47427;51.976;5.326;2022-09-12T03:19:31;101538.25;;;13.61;93.08
45403;BME280;47427;51.976;5.326;2022-09-12T03:23:05;101540.88;;;13.61;93.20
45403;BME280;47427;51.976;5.326;2022-09-12T03:30:05;101548.16;;;13.72;93.48
45403;BME280;47427;51.976;5.326;2022-09-12T03:33:28;101535.00;;;13.72;93.28
45403;BME280;47427;51.976;5.326;2022-09-12T03:36:51;101539.44;;;13.74;93.25
45403;BME280;47427;51.976;5.326;2022-09-12T03:40:16;101538.75;;;13.81;92.55
45403;BME280;47427;51.976;5.326;2022-09-12T03:43:39;101526.25;;;13.73;92.67
45403;BME280;47427;51.976;5.326;2022-09-12T03:47:02;101531.53;;;13.74;92.83
45403;BME280;47427;51.976;5.326;2022-09-12T03:50:43;101523.56;;;13.71;93.02
45403;BME280;47427;51.976;5.326;2022-09-12T03:54:06;101527.13;;;13.73;93.27
45403;BME280;47427;51.976;5.326;2022-09-12T03:57:31;101511.94;;;13.64;93.54
45403;BME280;47427;51.976;5.326;2022-09-12T04:00:54;101520.84;;;13.68;93.61
45403;BME280;47427;51.976;5.326;2022-09-12T04:04:17;101528.91;;;13.74;94.08
45403;BME280;47427;51.976;5.326;2022-09-12T04:07:39;101526.25;;;13.74;94.59
45403;BME280;47427;51.976;5.326;2022-09-12T04:11:05;101507.72;;;13.71;94.48
45403;BME280;47427;51.976;5.326;2022-09-12T04:14:28;101509.69;;;13.80;94.03
45403;BME280;47427;51.976;5.326;2022-09-12T04:17:51;101515.13;;;13.86;94.18
45403;BME280;47427;51.976;5.326;2022-09-12T04:21:17;101506.97;;;13.77;94.30
45403;BME280;47427;51.976;5.326;2022-09-12T04:24:40;101500.75;;;13.73;94.94
45403;BME280;47427;51.976;5.326;2022-09-12T04:28:02;101512.38;;;13.81;94.92
45403;BME280;47427;51.976;5.326;2022-09-12T04:31:44;101507.22;;;13.86;95.01
45403;BME280;47427;51.976;5.326;2022-09-12T04:35:07;101503.63;;;13.84;94.94
45403;BME280;47427;51.976;5.326;2022-09-12T04:38:29;101502.88;;;13.90;94.93
45403;BME280;47427;51.976;5.326;2022-09-12T04:41:52;101496.78;;;13.92;94.62
45403;BME280;47427;51.976;5.326;2022-09-12T04:45:16;101509.41;;;14.05;94.66
45403;BME280;47427;51.976;5.326;2022-09-12T04:48:39;101510.41;;;14.11;94.24
45403;BME280;47427;51.976;5.326;2022-09-12T04:52:21;101492.72;;;14.06;93.92
45403;BME280;47427;51.976;5.326;2022-09-12T04:55:44;101498.16;;;14.14;93.99
45403;BME280;47427;51.976;5.326;2022-09-12T04:59:07;101496.41;;;14.13;93.94
45403;BME280;47427;51.976;5.326;2022-09-12T05:02:33;101510.59;;;14.18;94.01
45403;BME280;47427;51.976;5.326;2022-09-12T05:06:23;101500.69;;;14.08;93.79
45403;BME280;47427;51.976;5.326;2022-09-12T05:09:46;101520.09;;;14.12;94.05
45403;BME280;47427;51.976;5.326;2022-09-12T05:13:09;101515.53;;;14.04;94.14
45403;BME280;47427;51.976;5.326;2022-09-12T05:16:31;101508.44;;;14.02;94.17
45403;BME280;47427;51.976;5.326;2022-09-12T05:20:12;101520.84;;;14.06;94.26
45403;BME280;47427;51.976;5.326;2022-09-12T05:23:36;101516.41;;;14.05;94.44
45403;BME280;47427;51.976;5.326;2022-09-12T05:26:58;101511.06;;;14.02;94.44
45403;BME280;47427;51.976;5.326;2022-09-12T05:30:21;101505.78;;;14.00;94.52
45403;BME280;47427;51.976;5.326;2022-09-12T05:33:46;101513.88;;;14.08;94.54
45403;BME280;47427;51.976;5.326;2022-09-12T05:37:09;101514.00;;;14.14;94.59
45403;BME280;47427;51.976;5.326;2022-09-12T05:40:33;101507.78;;;14.12;94.82
45403;BME280;47427;51.976;5.326;2022-09-12T05:44:02;101507.13;;;14.21;94.90
45403;BME280;47427;51.976;5.326;2022-09-12T05:47:46;101508.78;;;14.17;94.88
45403;BME280;47427;51.976;5.326;2022-09-12T05:51:15;101512.50;;;14.27;94.68
45403;BME280;47427;51.976;5.326;2022-09-12T05:54:41;101496.41;;;14.15;94.80
45403;BME280;47427;51.976;5.326;2022-09-12T05:58:04;101499.91;;;14.14;95.38
45403;BME280;47427;51.976;5.326;2022-09-12T06:01:29;101502.50;;;14.11;95.27
45403;BME280;47427;51.976;5.326;2022-09-12T06:04:52;101503.22;;;14.05;95.46
45403;BME280;47427;51.976;5.326;2022-09-12T06:08:15;101508.44;;;14.02;95.69
45403;BME280;47427;51.976;5.326;2022-09-12T06:11:39;101505.56;;;13.91;96.64
45403;BME280;47427;51.976;5.326;2022-09-12T06:15:23;101518.94;;;13.99;96.07
45403;BME280;47427;51.976;5.326;2022-09-12T06:18:51;101507.25;;;13.87;96.45
45403;BME280;47427;51.976;5.326;2022-09-12T06:22:15;101491.25;;;13.81;96.80
45403;BME280;47427;51.976;5.326;2022-09-12T06:25:44;101510.94;;;13.96;96.73
45403;BME280;47427;51.976;5.326;2022-09-12T06:29:08;101504.88;;;14.00;96.48
45403;BME280;47427;51.976;5.326;2022-09-12T06:32:32;101504.16;;;14.05;96.64
45403;BME280;47427;51.976;5.326;2022-09-12T06:36:12;101498.22;;;14.16;96.53
45403;BME280;47427;51.976;5.326;2022-09-12T06:39:35;101504.34;;;14.56;96.00
45403;BME280;47427;51.976;5.326;2022-09-12T06:43:18;101503.19;;;15.35;94.12
45403;BME280;47427;51.976;5.326;2022-09-12T06:46:43;101504.53;;;16.18;90.69
45403;BME280;47427;51.976;5.326;2022-09-12T06:50:06;101503.69;;;16.94;88.66
45403;BME280;47427;51.976;5.326;2022-09-12T06:53:30;101489.78;;;17.17;84.47
45403;BME280;47427;51.976;5.326;2022-09-12T06:57:00;101493.88;;;17.80;81.27
45403;BME280;47427;51.976;5.326;2022-09-12T07:00:23;101489.84;;;18.65;78.85
45403;BME280;47427;51.976;5.326;2022-09-12T07:03:49;101490.88;;;19.18;75.82
45403;BME280;47427;51.976;5.326;2022-09-12T07:07:12;101479.34;;;19.34;73.97
45403;BME280;47427;51.976;5.326;2022-09-12T07:10:44;101480.25;;;19.53;72.38
45403;BME280;47427;51.976;5.326;2022-09-12T07:14:11;101490.84;;;18.96;73.34
45403;BME280;47427;51.976;5.326;2022-09-12T07:17:35;101490.91;;;19.85;70.56
45403;BME280;47427;51.976;5.326;2022-09-12T07:21:01;101488.19;;;19.96;69.88
45403;BME280;47427;51.976;5.326;2022-09-12T07:24:43;101489.97;;;19.99;69.52
45403;BME280;47427;51.976;5.326;2022-09-12T07:28:07;101485.09;;;21.02;68.24
45403;BME280;47427;51.976;5.326;2022-09-12T07:31:30;101493.91;;;22.85;65.38
45403;BME280;47427;51.976;5.326;2022-09-12T07:34:52;101494.00;;;22.06;61.35
45403;BME280;47427;51.976;5.326;2022-09-12T07:38:16;101486.06;;;22.71;62.58
45403;BME280;47427;51.976;5.326;2022-09-12T07:41:38;101491.59;;;23.76;58.95
45403;BME280;47427;51.976;5.326;2022-09-12T07:45:01;101487.81;;;24.33;55.34
45403;BME280;47427;51.976;5.326;2022-09-12T07:48:24;101477.50;;;24.13;54.42
45403;BME280;47427;51.976;5.326;2022-09-12T07:52:06;101494.56;;;24.08;55.94
45403;BME280;47427;51.976;5.326;2022-09-12T07:55:29;101479.53;;;24.44;54.80
45403;BME280;47427;51.976;5.326;2022-09-12T07:58:51;101497.22;;;24.95;54.28
45403;BME280;47427;51.976;5.326;2022-09-12T08:02:16;101498.63;;;25.11;54.00
45403;BME280;47427;51.976;5.326;2022-09-12T08:05:39;101491.50;;;25.47;51.17
45403;BME280;47427;51.976;5.326;2022-09-12T08:09:04;101498.03;;;27.26;48.01
45403;BME280;47427;51.976;5.326;2022-09-12T08:12:28;101501.09;;;28.44;46.10
45403;BME280;47427;51.976;5.326;2022-09-12T08:15:51;101501.19;;;28.88;44.87
45403;BME280;47427;51.976;5.326;2022-09-12T08:19:18;101493.31;;;28.11;43.70
45403;BME280;47427;51.976;5.326;2022-09-12T08:22:41;101500.06;;;28.71;44.48
45403;BME280;47427;51.976;5.326;2022-09-12T08:26:05;101490.25;;;29.57;41.46
45403;BME280;47427;51.976;5.326;2022-09-12T08:29:28;101494.97;;;29.74;41.06
45403;BME280;47427;51.976;5.326;2022-09-12T08:32:51;101499.47;;;30.35;40.09
45403;BME280;47427;51.976;5.326;2022-09-12T08:36:18;101490.44;;;31.29;40.52
45403;BME280;47427;51.976;5.326;2022-09-12T08:39:42;101498.81;;;31.95;38.30
45403;BME280;47427;51.976;5.326;2022-09-12T08:50:43;101504.91;;;32.34;35.73
45403;BME280;47427;51.976;5.326;2022-09-12T08:54:28;101502.25;;;32.66;34.55
45403;BME280;47427;51.976;5.326;2022-09-12T08:57:52;101492.97;;;32.03;35.26
45403;BME280;47427;51.976;5.326;2022-09-12T09:04:55;101482.75;;;31.56;35.50
45403;BME280;47427;51.976;5.326;2022-09-12T09:08:37;101480.47;;;33.29;34.12
45403;BME280;47427;51.976;5.326;2022-09-12T09:13:07;101481.53;;;33.42;35.12
45403;BME280;47427;51.976;5.326;2022-09-12T09:16:38;101467.31;;;33.37;32.41
45403;BME280;47427;51.976;5.326;2022-09-12T09:24:01;101473.63;;;35.11;30.76
45403;BME280;47427;51.976;5.326;2022-09-12T09:31:24;101468.47;;;34.37;31.06
45403;BME280;47427;51.976;5.326;2022-09-12T09:34:47;101466.56;;;35.62;29.78
45403;BME280;47427;51.976;5.326;2022-09-12T09:38:38;101465.00;;;34.90;30.53
45403;BME280;47427;51.976;5.326;2022-09-12T09:42:25;101462.81;;;35.50;30.19
45403;BME280;47427;51.976;5.326;2022-09-12T09:45:50;101453.38;;;36.07;29.29
45403;BME280;47427;51.976;5.326;2022-09-12T09:49:15;101451.06;;;36.00;28.41
45403;BME280;47427;51.976;5.326;2022-09-12T09:52:38;101444.88;;;37.22;26.98
45403;BME280;47427;51.976;5.326;2022-09-12T09:56:14;101446.91;;;37.31;27.26
45403;BME280;47427;51.976;5.326;2022-09-12T09:59:43;101448.00;;;38.33;24.88
45403;BME280;47427;51.976;5.326;2022-09-12T10:06:40;101439.59;;;39.55;24.73
45403;BME280;47427;51.976;5.326;2022-09-12T10:13:51;101413.66;;;40.81;22.28
45403;BME280;47427;51.976;5.326;2022-09-12T10:17:28;101411.91;;;40.70;22.72
45403;BME280;47427;51.976;5.326;2022-09-12T10:20:51;101408.75;;;40.75;21.80
45403;BME280;47427;51.976;5.326;2022-09-12T10:24:27;101394.47;;;40.09;22.15
45403;BME280;47427;51.976;5.326;2022-09-12T10:27:58;101406.88;;;40.85;22.57
45403;BME280;47427;51.976;5.326;2022-09-12T10:35:41;101381.94;;;41.06;21.86
45403;BME280;47427;51.976;5.326;2022-09-12T10:39:06;101389.44;;;41.52;20.87
45403;BME280;47427;51.976;5.326;2022-09-12T10:42:54;101381.22;;;41.90;21.57
45403;BME280;47427;51.976;5.326;2022-09-12T10:49:39;101366.94;;;41.67;20.73
45403;BME280;47427;51.976;5.326;2022-09-12T10:53:42;101366.56;;;41.99;19.57
45403;BME280;47427;51.976;5.326;2022-09-12T10:58:05;101352.81;;;40.84;21.19
45403;BME280;47427;51.976;5.326;2022-09-12T11:01:43;101358.41;;;42.53;21.05
45403;BME280;47427;51.976;5.326;2022-09-12T11:09:46;101352.09;;;41.30;21.98
45403;BME280;47427;51.976;5.326;2022-09-12T11:13:58;101358.69;;;42.77;19.29
45403;BME280;47427;51.976;5.326;2022-09-12T11:18:00;101353.53;;;42.19;19.63
45403;BME280;47427;51.976;5.326;2022-09-12T11:25:50;101350.84;;;42.37;19.61
45403;BME280;47427;51.976;5.326;2022-09-12T11:37:27;101345.31;;;42.09;18.54
45403;BME280;47427;51.976;5.326;2022-09-12T11:41:04;101345.88;;;41.09;20.04
45403;BME280;47427;51.976;5.326;2022-09-12T11:44:46;101331.56;;;42.27;18.66
45403;BME280;47427;51.976;5.326;2022-09-12T11:52:37;101334.25;;;40.47;20.28
45403;BME280;47427;51.976;5.326;2022-09-12T11:56:18;101338.44;;;40.01;20.58
45403;BME280;47427;51.976;5.326;2022-09-12T12:03:43;101333.00;;;41.00;20.14
45403;BME280;47427;51.976;5.326;2022-09-12T12:07:10;101328.09;;;39.53;21.39
45403;BME280;47427;51.976;5.326;2022-09-12T12:10:57;101319.09;;;40.72;20.01
45403;BME280;47427;51.976;5.326;2022-09-12T12:14:42;101314.63;;;39.50;21.73
45403;BME280;47427;51.976;5.326;2022-09-12T12:18:23;101306.22;;;37.34;22.52
45403;BME280;47427;51.976;5.326;2022-09-12T12:21:48;101307.34;;;39.39;21.31
45403;BME280;47427;51.976;5.326;2022-09-12T12:38:58;101291.63;;;41.29;19.37
45403;BME280;47427;51.976;5.326;2022-09-12T12:46:05;101281.19;;;42.25;18.15
45403;BME280;47427;51.976;5.326;2022-09-12T12:49:28;101283.56;;;40.98;19.42
45403;BME280;47427;51.976;5.326;2022-09-12T12:53:24;101286.91;;;41.11;18.92
45403;BME280;47427;51.976;5.326;2022-09-12T12:56:49;101273.50;;;42.64;17.54
45403;BME280;47427;51.976;5.326;2022-09-12T13:04:19;101266.94;;;39.20;20.58
45403;BME280;47427;51.976;5.326;2022-09-12T13:07:43;101249.88;;;38.95;21.31
45403;BME280;47427;51.976;5.326;2022-09-12T13:11:14;101250.94;;;38.51;21.06
45403;BME280;47427;51.976;5.326;2022-09-12T13:14:59;101252.69;;;39.05;20.76
45403;BME280;47427;51.976;5.326;2022-09-12T13:18:47;101253.53;;;39.57;20.09
45403;BME280;47427;51.976;5.326;2022-09-12T13:22:11;101229.47;;;40.69;19.53
45403;BME280;47427;51.976;5.326;2022-09-12T13:25:56;101226.53;;;40.71;20.30
45403;BME280;47427;51.976;5.326;2022-09-12T13:29:22;101216.66;;;37.58;21.63
45403;BME280;47427;51.976;5.326;2022-09-12T13:32:45;101217.34;;;37.94;22.78
45403;BME280;47427;51.976;5.326;2022-09-12T13:40:56;101224.31;;;39.26;20.69
45403;BME280;47427;51.976;5.326;2022-09-12T13:44:22;101209.72;;;39.25;20.47
45403;BME280;47427;51.976;5.326;2022-09-12T13:47:55;101203.78;;;40.79;19.51
45403;BME280;47427;51.976;5.326;2022-09-12T13:51:26;101213.75;;;42.55;18.38
45403;BME280;47427;51.976;5.326;2022-09-12T13:54:54;101217.47;;;43.16;17.08
45403;BME280;47427;51.976;5.326;2022-09-12T13:58:34;101218.66;;;41.15;18.58
45403;BME280;47427;51.976;5.326;2022-09-12T14:01:57;101200.28;;;41.43;19.57
45403;BME280;47427;51.976;5.326;2022-09-12T14:05:24;101199.72;;;40.92;18.54
45403;BME280;47427;51.976;5.326;2022-09-12T14:08:47;101199.72;;;41.30;18.20
45403;BME280;47427;51.976;5.326;2022-09-12T14:12:37;101191.53;;;41.20;18.18
45403;BME280;47427;51.976;5.326;2022-09-12T14:16:05;101179.22;;;39.59;20.34
45403;BME280;47427;51.976;5.326;2022-09-12T14:19:31;101178.84;;;39.73;20.21
45403;BME280;47427;51.976;5.326;2022-09-12T14:23:15;101167.44;;;39.87;19.50
45403;BME280;47427;51.976;5.326;2022-09-12T14:26:42;101177.94;;;39.32;21.16
45403;BME280;47427;51.976;5.326;2022-09-12T14:30:30;101172.25;;;39.14;21.12
45403;BME280;47427;51.976;5.326;2022-09-12T14:34:16;101164.16;;;37.53;22.53
45403;BME280;47427;51.976;5.326;2022-09-12T14:37:42;101143.34;;;36.36;23.97
45403;BME280;47427;51.976;5.326;2022-09-12T14:41:09;101148.38;;;37.89;23.34
45403;BME280;47427;51.976;5.326;2022-09-12T14:44:33;101137.06;;;35.75;23.63
45403;BME280;47427;51.976;5.326;2022-09-12T14:48:05;101123.53;;;33.94;25.30
45403;BME280;47427;51.976;5.326;2022-09-12T14:51:36;101149.31;;;33.88;26.10
45403;BME280;47427;51.976;5.326;2022-09-12T14:55:19;101141.63;;;35.50;25.25
45403;BME280;47427;51.976;5.326;2022-09-12T14:58:42;101133.91;;;36.40;24.05
45403;BME280;47427;51.976;5.326;2022-09-12T15:06:04;101133.91;;;34.42;25.93
45403;BME280;47427;51.976;5.326;2022-09-12T15:09:29;101127.22;;;33.66;26.68
45403;BME280;47427;51.976;5.326;2022-09-12T15:13:14;101107.97;;;33.28;27.66
45403;BME280;47427;51.976;5.326;2022-09-12T15:16:37;101132.88;;;32.02;28.92
45403;BME280;47427;51.976;5.326;2022-09-12T15:20:00;101127.06;;;33.55;27.97
45403;BME280;47427;51.976;5.326;2022-09-12T15:23:31;101129.75;;;33.69;27.27
45403;BME280;47427;51.976;5.326;2022-09-12T15:26:56;101129.19;;;33.91;26.68
45403;BME280;47427;51.976;5.326;2022-09-12T15:30:19;101123.84;;;33.48;26.79
45403;BME280;47427;51.976;5.326;2022-09-12T15:33:42;101114.03;;;33.45;27.10
45403;BME280;47427;51.976;5.326;2022-09-12T15:37:12;101113.97;;;34.01;26.51
45403;BME280;47427;51.976;5.326;2022-09-12T15:40:35;101112.16;;;33.87;26.27
45403;BME280;47427;51.976;5.326;2022-09-12T15:43:58;101104.50;;;34.98;25.80
45403;BME280;47427;51.976;5.326;2022-09-12T15:47:39;101117.69;;;35.04;25.22
45403;BME280;47427;51.976;5.326;2022-09-12T15:51:02;101118.28;;;33.91;25.99
45403;BME280;47427;51.976;5.326;2022-09-12T15:54:27;101112.78;;;33.37;26.07
45403;BME280;47427;51.976;5.326;2022-09-12T15:57:50;101104.19;;;32.87;26.85
45403;BME280;47427;51.976;5.326;2022-09-12T16:01:15;101091.25;;;32.62;27.35
45403;BME280;47427;51.976;5.326;2022-09-12T16:04:39;101086.09;;;33.00;27.23
45403;BME280;47427;51.976;5.326;2022-09-12T16:08:02;101085.06;;;33.44;27.61
45403;BME280;47427;51.976;5.326;2022-09-12T16:11:26;101091.84;;;32.96;27.01
45403;BME280;47427;51.976;5.326;2022-09-12T16:15:18;101082.31;;;31.22;29.45
45403;BME280;47427;51.976;5.326;2022-09-12T16:18:42;101085.91;;;30.56;30.98
45403;BME280;47427;51.976;5.326;2022-09-12T16:22:04;101089.69;;;30.36;32.14
45403;BME280;47427;51.976;5.326;2022-09-12T16:25:27;101078.47;;;28.96;33.98
45403;BME280;47427;51.976;5.326;2022-09-12T16:28:57;101081.75;;;30.66;32.29
45403;BME280;47427;51.976;5.326;2022-09-12T16:32:20;101072.84;;;30.97;31.43
45403;BME280;47427;51.976;5.326;2022-09-12T16:35:43;101062.53;;;30.37;33.39
45403;BME280;47427;51.976;5.326;2022-09-12T16:39:05;101068.28;;;29.41;34.11
45403;BME280;47427;51.976;5.326;2022-09-12T16:42:46;101079.56;;;28.33;36.38
45403;BME280;47427;51.976;5.326;2022-09-12T16:46:11;101068.50;;;27.54;38.71
45403;BME280;47427;51.976;5.326;2022-09-12T16:49:34;101063.06;;;27.33;38.92
45403;BME280;47427;51.976;5.326;2022-09-12T16:52:58;101066.81;;;27.06;39.24
45403;BME280;47427;51.976;5.326;2022-09-12T16:56:20;101063.34;;;26.78;39.35
45403;BME280;47427;51.976;5.326;2022-09-12T16:59:42;101036.81;;;26.44;40.93
45403;BME280;47427;51.976;5.326;2022-09-12T17:03:04;101044.44;;;26.31;40.82
45403;BME280;47427;51.976;5.326;2022-09-12T17:06:27;101028.91;;;26.14;40.97
45403;BME280;47427;51.976;5.326;2022-09-12T17:09:50;101041.66;;;26.08;41.23
45403;BME280;47427;51.976;5.326;2022-09-12T17:13:12;101043.56;;;26.06;42.51
45403;BME280;47427;51.976;5.326;2022-09-12T17:16:39;101032.50;;;25.88;42.12
45403;BME280;47427;51.976;5.326;2022-09-12T17:20:02;101014.38;;;25.67;42.10
45403;BME280;47427;51.976;5.326;2022-09-12T17:23:26;101023.66;;;25.58;44.65
45403;BME280;47427;51.976;5.326;2022-09-12T17:26:50;101013.25;;;25.47;44.52
45403;BME280;47427;51.976;5.326;2022-09-12T17:30:12;101010.91;;;25.37;44.14
45403;BME280;47427;51.976;5.326;2022-09-12T17:33:36;101013.38;;;25.15;46.47
45403;BME280;47427;51.976;5.326;2022-09-12T17:36:59;101030.34;;;24.87;45.46
45403;BME280;47427;51.976;5.326;2022-09-12T17:40:20;101038.06;;;24.68;46.08
45403;BME280;47427;51.976;5.326;2022-09-12T17:43:45;101021.66;;;24.48;47.28
45403;BME280;47427;51.976;5.326;2022-09-12T17:47:09;101038.81;;;24.40;48.25
45403;BME280;47427;51.976;5.326;2022-09-12T17:50:35;101033.84;;;24.27;49.17
45403;BME280;47427;51.976;5.326;2022-09-12T17:53:58;101032.22;;;24.21;48.31
45403;BME280;47427;51.976;5.326;2022-09-12T17:57:21;101036.13;;;24.08;50.03
45403;BME280;47427;51.976;5.326;2022-09-12T18:00:44;101038.31;;;23.93;50.96
45403;BME280;47427;51.976;5.326;2022-09-12T18:04:36;101015.75;;;23.66;50.94
45403;BME280;47427;51.976;5.326;2022-09-12T18:07:58;101029.34;;;23.58;52.04
45403;BME280;47427;51.976;5.326;2022-09-12T18:11:20;101039.78;;;23.32;52.15
45403;BME280;47427;51.976;5.326;2022-09-12T18:14:42;101043.75;;;23.15;52.51
45403;BME280;47427;51.976;5.326;2022-09-12T18:18:24;101052.19;;;22.96;54.00
45403;BME280;47427;51.976;5.326;2022-09-12T18:21:45;101054.28;;;22.81;54.30
45403;BME280;47427;51.976;5.326;2022-09-12T18:25:08;101058.06;;;22.71;54.62
45403;BME280;47427;51.976;5.326;2022-09-12T18:28:34;101062.88;;;22.54;55.25
45403;BME280;47427;51.976;5.326;2022-09-12T18:31:57;101048.03;;;22.39;54.82
45403;BME280;47427;51.976;5.326;2022-09-12T18:35:19;101053.63;;;22.25;56.06
45403;BME280;47427;51.976;5.326;2022-09-12T18:38:42;101066.28;;;22.14;57.15
45403;BME280;47427;51.976;5.326;2022-09-12T18:42:04;101061.16;;;22.01;56.93
45403;BME280;47427;51.976;5.326;2022-09-12T18:45:26;101046.22;;;21.90;57.40
45403;BME280;47427;51.976;5.326;2022-09-12T18:48:49;101051.69;;;21.82;57.88
45403;BME280;47427;51.976;5.326;2022-09-12T18:52:10;101048.34;;;21.69;58.21
45403;BME280;47427;51.976;5.326;2022-09-12T18:55:32;101037.78;;;21.63;58.94
45403;BME280;47427;51.976;5.326;2022-09-12T18:58:55;101044.03;;;21.60;59.17
45403;BME280;47427;51.976;5.326;2022-09-12T19:02:17;101035.25;;;21.54;59.62
45403;BME280;47427;51.976;5.326;2022-09-12T19:05:39;101024.69;;;21.46;59.76
45403;BME280;47427;51.976;5.326;2022-09-12T19:09:02;101030.94;;;21.45;59.95
45403;BME280;47427;51.976;5.326;2022-09-12T19:12:24;101010.56;;;21.36;60.27
45403;BME280;47427;51.976;5.326;2022-09-12T19:15:47;101009.75;;;21.31;60.87
45403;BME280;47427;51.976;5.326;2022-09-12T19:19:10;100997.44;;;21.23;61.32
45403;BME280;47427;51.976;5.326;2022-09-12T19:22:31;100998.38;;;21.18;61.70
45403;BME280;47427;51.976;5.326;2022-09-12T19:26:15;101000.22;;;21.15;62.04
45403;BME280;47427;51.976;5.326;2022-09-12T19:29:38;100997.69;;;21.07;62.03
45403;BME280;47427;51.976;5.326;2022-09-12T19:33:01;100997.72;;;21.04;62.26
45403;BME280;47427;51.976;5.326;2022-09-12T19:36:24;101000.47;;;20.99;62.71
45403;BME280;47427;51.976;5.326;2022-09-12T19:39:46;100991.66;;;20.93;62.57
45403;BME280;47427;51.976;5.326;2022-09-12T19:43:09;100982.78;;;20.92;63.02
45403;BME280;47427;51.976;5.326;2022-09-12T19:46:30;100997.78;;;20.99;62.82
45403;BME280;47427;51.976;5.326;2022-09-12T19:49:53;101017.16;;;21.12;62.98
45403;BME280;47427;51.976;5.326;2022-09-12T19:53:17;101012.72;;;21.13;62.81
45403;BME280;47427;51.976;5.326;2022-09-12T19:56:38;101022.41;;;21.20;62.54
45403;BME280;47427;51.976;5.326;2022-09-12T20:00:03;101021.31;;;21.32;63.22
45403;BME280;47427;51.976;5.326;2022-09-12T20:03:27;101013.22;;;21.39;61.77
45403;BME280;47427;51.976;5.326;2022-09-12T20:06:49;101016.81;;;21.34;63.04
45403;BME280;47427;51.976;5.326;2022-09-12T20:10:13;101006.44;;;21.17;63.64
45403;BME280;47427;51.976;5.326;2022-09-12T20:13:35;101010.91;;;21.13;63.71
45403;BME280;47427;51.976;5.326;2022-09-12T20:16:57;100994.16;;;21.05;64.19
45403;BME280;47427;51.976;5.326;2022-09-12T20:20:39;100986.25;;;20.96;64.20
45403;BME280;47427;51.976;5.326;2022-09-12T20:24:11;100993.56;;;20.83;64.95
45403;BME280;47427;51.976;5.326;2022-09-12T20:27:34;100987.56;;;20.67;65.46